Waterford Township, MI

11:07 PM EST on November 27, 2014 (GMT -0500)
Oakland County International | Change Station
CLOSE
Current Station
Airport
Location: Pontiac,
Elevation: 981 ft
Nearby Weather Stations

Elev 981 ft 42.67 °N, 83.42 °W | Updated 14 minutes ago

Light Snow
Light Snow
22 °F
Feels Like 8 °F
N
16
Wind Variable Wind from NW
Gusts 21 mph

Today
High -- | Low -- °F
--% Chance of Precip.
Yesterday
High -- | Low -- °F
Precip. -- in
7:39 AM 5:02 PM
Waxing Crescent, 36% visible
Pressure 30.31 in
Visibility 9.0 miles
Clouds Mostly Cloudy 4100 ft
Windchill 8 °F
Dew Point 8 °F
Humidity 55%
Rainfall 0.00 in
Snow Depth Not available.
UV 0 out of 12
Pollen .10 out of 12
Air Quality Not available.
Flu Activity Not available.
METAR KPTK 280353Z 32014G18KT 9SM -SN BKN041 M06/M13 A3027 RMK AO2 SLP264 P0000 T10561133

More Conditions Fewer Conditions

Pressure 30.31 in
Visibility 9.0 miles
Clouds Mostly Cloudy 4100 ft
Windchill 8 °F
Dew Point 8 °F
Humidity 55%
Rainfall 0.00 in
Snow Depth Not available.
UV 0 out of 12
Pollen .10 out of 12
Air Quality Not available.
Flu Activity Not available.
METAR KPTK 280353Z 32014G18KT 9SM -SN BKN041 M06/M13 A3027 RMK AO2 SLP264 P0000 T10561133

More Conditions Fewer Conditions

10-Day Weather Forecast

Almanac

Astronomy

Nov. 27, 2014 Rise Set
Actual Time
Civil Twilight
Nautical Twilight
Astronomical Twilight
Moon
Length of Visible Light
Length of Day
Tomorrow will be .
, % of the Moon is Illuminated

Today's Extremes

State Highs State Lows

Community

WunderPhotos

Upload Photos

1,774,176 photos uploaded!

WunderBlogs® & News

Nearby

Air Quality

  Air Quality AQ Index Pollutant
Not available.

Snow Depth

Station Depth Elevation

Earthquake Activity

City Distance Mag. Time & Date
Minimum magnitude displayed is 2.5.

Coastal Water Temperatures

Place Temperature

Nearby Weather Stations